createdAt,value
2022-09-04T00:03:14.613Z,100.00
2022-09-04T00:06:07.361Z,100.00
2022-09-04T00:09:06.913Z,100.00
2022-09-04T00:12:10.133Z,100.00
2022-09-04T00:15:01.360Z,100.00
2022-09-04T00:17:57.972Z,100.00
2022-09-04T00:20:49.901Z,100.00
2022-09-04T00:23:44.542Z,100.00
2022-09-04T00:26:45.006Z,100.00
2022-09-04T00:29:54.183Z,100.00
2022-09-04T00:32:51.285Z,100.00
2022-09-04T00:35:40.521Z,100.00
2022-09-04T00:38:35.531Z,100.00
2022-09-04T00:41:30.781Z,100.00
2022-09-04T00:44:57.826Z,100.00
2022-09-04T00:47:50.920Z,100.00
2022-09-04T00:51:01.725Z,100.00
2022-09-04T00:53:49.969Z,100.00
2022-09-04T00:57:13.833Z,100.00
2022-09-04T01:00:18.203Z,100.00
2022-09-04T01:03:15.507Z,100.00
2022-09-04T01:06:04.349Z,100.00
2022-09-04T01:09:21.816Z,100.00
2022-09-04T01:12:22.184Z,100.00
2022-09-04T01:15:25.432Z,100.00
2022-09-04T01:19:02.568Z,100.00
2022-09-04T01:22:12.970Z,100.00
2022-09-04T01:25:29.138Z,100.00
2022-09-04T01:28:27.540Z,100.00
2022-09-04T01:31:25.228Z,100.00
2022-09-04T01:34:33.888Z,100.00
2022-09-04T01:37:49.747Z,100.00
2022-09-04T01:40:53.169Z,100.00
2022-09-04T01:43:39.502Z,100.00
2022-09-04T01:46:58.107Z,100.00
2022-09-04T01:49:53.339Z,100.00
2022-09-04T01:53:00.820Z,100.00
2022-09-04T01:56:03.851Z,100.00
2022-09-04T01:58:58.408Z,100.00
2022-09-04T02:01:52.983Z,100.00
2022-09-04T02:04:45.257Z,100.00
2022-09-04T02:07:55.943Z,100.00
2022-09-04T02:11:28.180Z,100.00
2022-09-04T02:14:13.858Z,100.00
2022-09-04T02:17:09.089Z,100.00
2022-09-04T02:20:03.665Z,100.00
2022-09-04T02:23:11.255Z,100.00
2022-09-04T02:26:22.468Z,100.00
2022-09-04T02:29:28.475Z,100.00
2022-09-04T02:32:29.334Z,100.00
2022-09-04T02:35:34.898Z,100.00
2022-09-04T02:38:51.602Z,100.00
2022-09-04T02:41:50.380Z,100.00
2022-09-04T02:45:04.665Z,100.00
2022-09-04T02:48:29.377Z,100.00
2022-09-04T02:51:52.419Z,100.00
2022-09-04T02:55:00.221Z,100.00
2022-09-04T02:58:11.685Z,100.00
2022-09-04T03:01:21.776Z,100.00
2022-09-04T03:04:22.241Z,100.00
2022-09-04T03:07:23.950Z,100.00
2022-09-04T03:10:18.498Z,100.00
2022-09-04T03:13:09.875Z,100.00
2022-09-04T03:16:12.465Z,100.00
2022-09-04T03:19:38.882Z,100.00
2022-09-04T03:22:30.379Z,100.00
2022-09-04T03:25:40.497Z,100.00
2022-09-04T03:28:31.142Z,100.00
2022-09-04T03:31:34.874Z,100.00
2022-09-04T03:34:26.130Z,100.00
2022-09-04T03:37:22.536Z,100.00
2022-09-04T03:40:10.300Z,100.00
2022-09-04T03:43:20.508Z,100.00
2022-09-04T03:46:17.585Z,100.00
2022-09-04T03:49:08.807Z,100.00
2022-09-04T03:52:52.483Z,100.00
2022-09-04T03:55:56.641Z,100.00
2022-09-04T03:59:02.647Z,100.00
2022-09-04T04:01:53.460Z,100.00
2022-09-04T04:04:52.079Z,100.00
2022-09-04T04:07:51.175Z,100.00
2022-09-04T04:11:15.644Z,100.00
2022-09-04T04:14:06.896Z,100.00
2022-09-04T04:16:55.906Z,100.00
2022-09-04T04:20:04.928Z,100.00
2022-09-04T04:23:04.706Z,100.00
2022-09-04T04:26:08.160Z,100.00
2022-09-04T04:29:25.328Z,100.00
2022-09-04T04:32:33.211Z,100.00
2022-09-04T04:35:28.005Z,100.00
2022-09-04T04:38:47.336Z,100.00
2022-09-04T04:42:05.117Z,100.00
2022-09-04T04:45:45.035Z,100.00
2022-09-04T04:49:04.693Z,100.00
2022-09-04T04:52:07.984Z,100.00
2022-09-04T04:55:11.472Z,100.00
2022-09-04T04:58:07.255Z,100.00
2022-09-04T05:00:55.819Z,100.00
2022-09-04T05:04:15.601Z,100.00
2022-09-04T05:07:19.071Z,100.00
2022-09-04T05:10:31.227Z,100.00
2022-09-04T05:13:16.186Z,100.00
2022-09-04T05:16:34.214Z,100.00
2022-09-04T05:19:43.395Z,100.00
2022-09-04T05:22:43.120Z,100.00
2022-09-04T05:25:50.582Z,100.00
2022-09-04T05:29:02.855Z,100.00
2022-09-04T05:31:53.249Z,100.00
2022-09-04T05:34:51.300Z,100.00
2022-09-04T05:38:06.787Z,99.72
2022-09-04T05:41:05.004Z,98.91
2022-09-04T05:44:08.845Z,97.91
2022-09-04T05:47:21.978Z,96.81
2022-09-04T05:50:31.810Z,95.89
2022-09-04T05:53:42.863Z,95.27
2022-09-04T05:56:28.070Z,93.34
2022-09-04T05:59:19.330Z,92.47
2022-09-04T06:02:26.330Z,91.48
2022-09-04T06:05:28.140Z,88.92
2022-09-04T06:08:38.278Z,87.23
2022-09-04T06:11:54.575Z,85.04
2022-09-04T06:14:55.532Z,84.74
2022-09-04T06:18:28.429Z,82.67
2022-09-04T06:21:31.869Z,80.94
2022-09-04T06:24:55.828Z,79.39
2022-09-04T06:27:50.048Z,78.04
2022-09-04T06:30:49.499Z,75.61
2022-09-04T06:34:00.385Z,74.77
2022-09-04T06:37:11.225Z,74.97
2022-09-04T06:39:59.480Z,74.11
2022-09-04T06:42:50.270Z,73.17
2022-09-04T06:46:04.130Z,72.18
2022-09-04T06:48:59.713Z,71.99
2022-09-04T06:51:59.684Z,71.95
2022-09-04T06:55:02.437Z,71.84
2022-09-04T06:58:06.215Z,70.19
2022-09-04T07:00:55.165Z,67.38
2022-09-04T07:03:58.132Z,66.25
2022-09-04T07:06:43.254Z,63.40
2022-09-04T07:09:35.083Z,61.30
2022-09-04T07:12:37.995Z,59.21
2022-09-04T07:15:33.354Z,58.85
2022-09-04T07:18:48.054Z,58.42
2022-09-04T07:21:35.944Z,58.11
2022-09-04T07:24:39.338Z,55.54
2022-09-04T07:27:58.431Z,54.29
2022-09-04T07:31:08.510Z,52.34
2022-09-04T07:34:23.978Z,51.34
2022-09-04T07:37:08.991Z,51.29
2022-09-04T07:40:05.333Z,51.15
2022-09-04T07:43:12.739Z,49.68
2022-09-04T07:46:13.311Z,50.80
2022-09-04T07:49:26.602Z,49.38
2022-09-04T07:52:43.767Z,49.04
2022-09-04T07:55:40.609Z,48.90
2022-09-04T07:58:46.387Z,46.80
2022-09-04T08:01:40.336Z,45.95
2022-09-04T08:04:28.548Z,43.57
2022-09-04T08:08:03.220Z,41.64
2022-09-04T08:11:19.195Z,40.89
2022-09-04T08:14:07.627Z,42.01
2022-09-04T08:17:05.027Z,40.71
2022-09-04T08:20:12.188Z,40.12
2022-09-04T08:23:11.594Z,39.42
2022-09-04T08:26:14.086Z,40.59
2022-09-04T08:29:37.157Z,38.64
2022-09-04T08:32:47.186Z,38.92
2022-09-04T08:35:34.598Z,38.96
2022-09-04T08:38:25.915Z,37.08
2022-09-04T08:41:29.737Z,34.04
2022-09-04T08:44:36.639Z,34.32
2022-09-04T08:47:57.161Z,33.53
2022-09-04T08:50:51.104Z,32.85
2022-09-04T08:54:01.990Z,33.05
2022-09-04T08:56:47.857Z,33.07
2022-09-04T09:00:01.858Z,31.67
2022-09-04T09:02:56.134Z,28.56
2022-09-04T09:06:10.231Z,28.11
2022-09-04T09:09:14.408Z,28.03
2022-09-04T09:12:40.746Z,26.24
2022-09-04T09:15:45.243Z,29.19
2022-09-04T09:18:48.808Z,31.04
2022-09-04T09:21:48.789Z,32.02
2022-09-04T09:24:45.907Z,33.14
2022-09-04T09:27:58.751Z,30.53
2022-09-04T09:31:29.118Z,32.84
2022-09-04T09:34:44.524Z,31.07
2022-09-04T09:38:13.696Z,32.33
2022-09-04T09:41:52.842Z,31.28
2022-09-04T09:45:09.586Z,33.64
2022-09-04T09:48:13.420Z,33.65
2022-09-04T09:51:17.233Z,32.96
2022-09-04T09:54:16.148Z,33.63
2022-09-04T09:57:21.870Z,34.00
2022-09-04T10:00:22.293Z,33.43
2022-09-04T10:03:28.960Z,34.12
2022-09-04T10:06:38.975Z,33.01
2022-09-04T10:09:34.410Z,32.93
2022-09-04T10:12:46.139Z,32.36
2022-09-04T10:15:55.939Z,32.87
2022-09-04T10:18:56.574Z,31.90
2022-09-04T10:22:00.258Z,32.10
2022-09-04T10:25:23.585Z,32.32
2022-09-04T10:28:40.239Z,31.71
2022-09-04T10:31:57.784Z,32.89
2022-09-04T10:34:54.957Z,31.00
2022-09-04T10:38:13.920Z,32.09
2022-09-04T10:41:34.826Z,29.30
2022-09-04T10:44:42.486Z,30.49
2022-09-04T10:47:52.071Z,30.32
2022-09-04T10:51:07.699Z,31.15
2022-09-04T10:54:08.159Z,32.38
2022-09-04T10:57:09.249Z,32.30
2022-09-04T11:00:00.252Z,33.79
2022-09-04T11:03:15.874Z,32.76
2022-09-04T11:06:25.627Z,33.71
2022-09-04T11:09:19.614Z,34.06
2022-09-04T11:12:47.396Z,33.55
2022-09-04T11:15:47.041Z,32.40
2022-09-04T11:19:10.220Z,33.20
2022-09-04T11:22:36.592Z,34.15
2022-09-04T11:25:37.296Z,34.13
2022-09-04T11:28:35.600Z,33.92
2022-09-04T11:31:53.239Z,34.86
2022-09-04T11:34:56.935Z,34.33
2022-09-04T11:38:13.516Z,34.17
2022-09-04T11:41:15.403Z,35.69
2022-09-04T11:44:27.885Z,36.71
2022-09-04T11:47:34.829Z,35.35
2022-09-04T11:50:37.650Z,36.63
2022-09-04T11:53:51.948Z,36.63
2022-09-04T11:57:12.938Z,36.26
2022-09-04T12:00:13.580Z,35.10
2022-09-04T12:03:13.942Z,33.85
2022-09-04T12:06:11.774Z,31.35
2022-09-04T12:09:28.044Z,28.25
2022-09-04T12:12:21.966Z,27.62
2022-09-04T12:15:40.650Z,27.24
2022-09-04T12:18:32.975Z,26.13
2022-09-04T12:21:24.882Z,26.37
2022-09-04T12:24:14.902Z,26.34
2022-09-04T12:27:24.841Z,26.84
2022-09-04T12:30:23.171Z,25.84
2022-09-04T12:33:27.864Z,23.84
2022-09-04T12:36:32.996Z,22.83
2022-09-04T12:40:08.684Z,24.61
2022-09-04T12:43:00.193Z,26.22
2022-09-04T12:45:58.439Z,25.04
2022-09-04T12:49:31.361Z,24.34
2022-09-04T12:52:38.902Z,25.02
2022-09-04T12:55:42.008Z,24.58
2022-09-04T12:58:59.148Z,23.81
2022-09-04T13:02:16.262Z,23.01
2022-09-04T13:05:14.083Z,22.35
2022-09-04T13:08:25.822Z,22.70
2022-09-04T13:11:33.175Z,22.58
2022-09-04T13:14:27.047Z,23.50
2022-09-04T13:17:42.862Z,23.15
2022-09-04T13:20:41.018Z,22.24
2022-09-04T13:23:37.179Z,20.84
2022-09-04T13:26:59.086Z,21.17
2022-09-04T13:30:20.237Z,21.18
2022-09-04T13:33:11.662Z,20.41
2022-09-04T13:36:18.623Z,20.77
2022-09-04T13:39:06.805Z,20.32
2022-09-04T13:42:19.418Z,20.71
2022-09-04T13:45:26.421Z,19.66
2022-09-04T13:48:18.100Z,20.48
2022-09-04T13:51:13.499Z,20.65
2022-09-04T13:54:05.068Z,21.07
2022-09-04T13:57:15.115Z,20.69
2022-09-04T14:00:06.979Z,21.75
2022-09-04T14:03:00.268Z,21.90
2022-09-04T14:05:45.641Z,21.45
2022-09-04T14:08:34.288Z,21.69
2022-09-04T14:11:34.054Z,21.69
2022-09-04T14:14:32.763Z,22.19
2022-09-04T14:17:26.494Z,22.70
2022-09-04T14:20:22.620Z,21.41
2022-09-04T14:23:27.383Z,21.73
2022-09-04T14:26:18.888Z,23.17
2022-09-04T14:29:32.602Z,21.95
2022-09-04T14:32:34.548Z,22.98
2022-09-04T14:35:35.297Z,22.91
2022-09-04T14:38:29.751Z,22.88
2022-09-04T14:41:20.725Z,23.72
2022-09-04T14:44:53.808Z,24.02
2022-09-04T14:48:05.012Z,26.92
2022-09-04T14:50:53.129Z,30.84
2022-09-04T14:53:46.950Z,32.61
2022-09-04T14:56:44.590Z,36.34
2022-09-04T14:59:38.857Z,37.34
2022-09-04T15:02:48.997Z,36.80
2022-09-04T15:05:48.320Z,37.91
2022-09-04T15:08:40.845Z,37.46
2022-09-04T15:11:34.180Z,38.81
2022-09-04T15:14:32.400Z,38.37
2022-09-04T15:17:27.639Z,40.39
2022-09-04T15:20:22.148Z,41.34
2022-09-04T15:23:32.529Z,40.77
2022-09-04T15:26:25.524Z,39.19
2022-09-04T15:29:33.056Z,35.87
2022-09-04T15:32:25.622Z,33.11
2022-09-04T15:35:22.375Z,32.12
2022-09-04T15:38:20.462Z,31.44
2022-09-04T15:41:26.032Z,30.71
2022-09-04T15:44:33.662Z,30.02
2022-09-04T15:47:41.818Z,29.98
2022-09-04T15:50:32.045Z,30.26
2022-09-04T15:53:49.189Z,31.50
2022-09-04T15:56:53.194Z,31.61
2022-09-04T15:59:48.983Z,32.21
2022-09-04T16:02:53.917Z,32.98
2022-09-04T16:05:56.844Z,33.77
2022-09-04T16:08:54.407Z,34.13
2022-09-04T16:11:48.448Z,35.90
2022-09-04T16:14:48.183Z,37.47
2022-09-04T16:17:42.422Z,39.57
2022-09-04T16:20:52.299Z,42.72
2022-09-04T16:23:40.101Z,45.97
2022-09-04T16:26:32.774Z,49.10
2022-09-04T16:29:24.520Z,52.13
2022-09-04T16:32:19.654Z,55.49
2022-09-04T16:35:18.938Z,58.46
2022-09-04T16:38:25.648Z,61.05
2022-09-04T16:41:13.545Z,62.46
2022-09-04T16:44:14.279Z,65.39
2022-09-04T16:47:04.235Z,67.36
2022-09-04T16:49:58.940Z,68.60
2022-09-04T16:53:22.768Z,71.16
2022-09-04T16:56:40.201Z,73.69
2022-09-04T16:59:25.421Z,76.74
2022-09-04T17:02:23.172Z,77.68
2022-09-04T17:05:39.440Z,78.15
2022-09-04T17:08:42.807Z,77.56
2022-09-04T17:11:27.409Z,76.69
2022-09-04T17:14:39.685Z,77.35
2022-09-04T17:17:31.430Z,77.95
2022-09-04T17:21:18.429Z,79.22
2022-09-04T17:28:57.159Z,82.28
2022-09-04T17:29:16.209Z,84.69
2022-09-04T17:30:28.898Z,86.88
2022-09-04T17:40:34.605Z,89.08
2022-09-04T17:40:47.149Z,90.59
2022-09-04T17:40:50.971Z,91.58
2022-09-04T17:43:41.352Z,92.83
2022-09-04T17:46:57.870Z,91.80
2022-09-04T17:49:47.658Z,90.87
2022-09-04T17:52:59.495Z,91.31
2022-09-04T17:55:47.289Z,93.45
2022-09-04T17:58:39.951Z,95.18
2022-09-04T18:01:33.122Z,95.80
2022-09-04T18:04:34.339Z,93.85
2022-09-04T18:08:10.051Z,92.77
2022-09-04T18:10:48.987Z,94.09
2022-09-04T18:13:51.556Z,95.59
2022-09-04T18:16:38.968Z,96.98
2022-09-04T18:19:46.724Z,98.07
2022-09-04T18:22:59.375Z,99.48
2022-09-04T18:25:51.690Z,100.00
2022-09-04T18:28:47.311Z,100.00
2022-09-04T18:37:25.492Z,100.00
2022-09-04T18:37:27.099Z,100.00
2022-09-04T18:38:20.090Z,100.00
2022-09-04T18:49:00.336Z,100.00
2022-09-04T18:50:33.815Z,100.00
2022-09-04T18:50:34.794Z,100.00
2022-09-04T18:51:20.100Z,100.00
2022-09-04T18:54:11.723Z,100.00
2022-09-04T18:57:06.496Z,100.00
2022-09-04T19:00:09.513Z,100.00
2022-09-04T19:03:09.889Z,100.00
2022-09-04T19:06:04.726Z,100.00
2022-09-04T19:08:55.715Z,100.00
2022-09-04T19:12:07.644Z,100.00
2022-09-04T19:14:55.265Z,100.00
2022-09-04T19:17:42.033Z,100.00
2022-09-04T19:20:36.326Z,100.00
2022-09-04T19:23:53.052Z,100.00
2022-09-04T19:26:53.726Z,100.00
2022-09-04T19:30:18.857Z,100.00
2022-09-04T19:33:16.172Z,100.00
2022-09-04T19:36:08.827Z,100.00
2022-09-04T19:46:08.069Z,100.00
2022-09-04T19:46:16.093Z,100.00
2022-09-04T19:46:28.205Z,100.00
2022-09-04T19:52:30.384Z,100.00
2022-09-04T19:53:33.499Z,100.00
2022-09-04T19:55:45.932Z,100.00
2022-09-04T19:58:39.554Z,100.00
2022-09-04T20:01:49.912Z,100.00
2022-09-04T20:04:46.464Z,100.00
2022-09-04T20:07:46.801Z,100.00
2022-09-04T20:10:37.798Z,100.00
2022-09-04T20:13:48.219Z,100.00
2022-09-04T20:16:47.706Z,100.00
2022-09-04T20:19:40.856Z,100.00
2022-09-04T20:22:25.875Z,100.00
2022-09-04T20:25:16.739Z,100.00
2022-09-04T20:28:45.350Z,100.00
2022-09-04T20:31:44.682Z,100.00
2022-09-04T20:34:39.953Z,100.00
2022-09-04T20:37:31.285Z,100.00
2022-09-04T20:40:34.691Z,100.00
2022-09-04T20:43:19.387Z,100.00
2022-09-04T20:52:42.317Z,100.00
2022-09-04T20:52:52.601Z,100.00
2022-09-04T20:53:06.168Z,100.00
2022-09-04T20:55:58.676Z,100.00
2022-09-04T21:03:14.434Z,100.00
2022-09-04T21:03:17.612Z,100.00
2022-09-04T21:05:54.290Z,100.00
2022-09-04T21:09:02.409Z,100.00
2022-09-04T21:12:05.265Z,100.00
2022-09-04T21:14:57.953Z,100.00
2022-09-04T21:18:18.881Z,100.00
2022-09-04T21:21:23.971Z,100.00
2022-09-04T21:24:41.440Z,100.00
2022-09-04T21:27:52.275Z,100.00
2022-09-04T21:30:52.716Z,100.00
2022-09-04T21:33:49.598Z,100.00
2022-09-04T21:36:59.111Z,100.00
2022-09-04T21:40:50.796Z,100.00
2022-09-04T21:44:11.369Z,100.00
2022-09-04T21:47:08.388Z,100.00
2022-09-04T21:50:09.232Z,100.00
2022-09-04T21:53:19.463Z,100.00
2022-09-04T22:01:14.050Z,100.00
2022-09-04T22:02:35.357Z,100.00
2022-09-04T22:03:21.223Z,100.00
2022-09-04T22:07:36.267Z,100.00
2022-09-04T22:13:32.584Z,100.00
2022-09-04T22:13:39.072Z,100.00
2022-09-04T22:16:36.074Z,100.00
2022-09-04T22:19:45.773Z,100.00
2022-09-04T22:22:55.263Z,100.00
2022-09-04T22:25:47.622Z,100.00
2022-09-04T22:28:35.766Z,100.00
2022-09-04T22:31:21.833Z,100.00
2022-09-04T22:34:39.150Z,100.00
2022-09-04T22:37:29.903Z,100.00
2022-09-04T22:40:32.224Z,100.00
2022-09-04T22:43:25.435Z,99.91
2022-09-04T22:46:49.810Z,100.00
2022-09-04T22:50:16.464Z,100.00
2022-09-04T22:53:27.261Z,100.00
2022-09-04T22:56:24.421Z,100.00
2022-09-04T22:59:33.539Z,100.00
2022-09-04T23:09:07.367Z,100.00
2022-09-04T23:13:51.608Z,100.00
2022-09-04T23:13:58.766Z,100.00
2022-09-04T23:16:28.662Z,100.00
2022-09-04T23:23:07.697Z,100.00
2022-09-04T23:26:38.230Z,100.00
2022-09-04T23:26:53.270Z,100.00
2022-09-04T23:29:34.666Z,100.00
2022-09-04T23:32:26.448Z,100.00
2022-09-04T23:35:15.778Z,100.00
2022-09-04T23:38:38.951Z,100.00
2022-09-04T23:41:33.160Z,100.00
2022-09-04T23:44:49.349Z,100.00
2022-09-04T23:47:53.590Z,100.00
2022-09-04T23:50:46.518Z,100.00
2022-09-04T23:53:44.146Z,100.00
2022-09-04T23:56:42.953Z,100.00
2022-09-04T23:59:55.733Z,100.00
